Ir al contenido principal

Accidente Tu-154 en el aeropuerto Domodédovo de Moscú


Al menos dos personas murieron y 83 recibieron heridas de diversa consideración tras aterrizaje de emergencia que realizó hoy el avión de pasajeros Tu-154 en el aeropuerto Domodédovo de Moscú, informaron fuentes del Ministerio de Sanidad.


Según fuentes de la Agencia de Aviación Civil, los pilotos del avión Tu-154 que despegó a las 14.07 horas locales (11.07 GMT) desde el aeropuerto Vnúkovo de Moscú con destino a Majachkalá, al informar a la torre de control pocos minutos después del despegue sobre la falla de los tres motores, tomaron la decisión de realizar un aterrizaje de emergencia en el aeropuerto capitalino Domodédovo.


“Cuando la aeronave se encontraba a la altura de 9.100 metros, también fallaron generadores y equipos de navegación”, indicaron las fuentes y agregaron que viajaban en el avión 163 pasajeros y nueve miembros de la tripulación.


Las fuentes dijeron que tras aterrizar en condiciones meteorológicas desfavorables y sin ayudas de navegación, la aeronave se salió de la pista y al embistir un montículo de tierra se partió en tres partes.

Metars:
UUDD 041300Z 18004MPS 5000 -SN BR BKN004 OVC100 M00/M01 Q1010 64550195 14550195 TEMPO FZRA
UUDD 041230Z 18004MPS 4900 BR BKN003 OVC100 M01/M01 Q1010 64550195 14550195 TEMPO FZRA
UUDD 041200Z 20003MPS 160V230 9999 OVC004 M01/M02 Q1010 64550195 TEMPO FZRA
UUDD 041130Z 19004MPS 9999 OVC005 M01/M02 Q1010 32550195 82550195 TEMPO FZRA
UUDD 041100Z 18005MPS 9999 OVC006 M01/M02 Q1010 64550195 14550195 TEMPO FZRA
UUDD 041030Z 18006MPS 9999 BKN006 OVC100 M02/M03 Q1009 64550195 14550195 TEMPO FZRA
UUDD 041000Z 17006MPS 9999 BKN007 OVC100 M02/M03 Q1010 64550195 14550195 TEMPO FZRA
UUDD 040930Z 16006MPS 9999 BKN007 OVC100 M03/M04 Q1009 64550195 14590194 TEMPO FZRA

Avión para distancias medias. Pertenece a la segunda generación de aviones de pasajeros de propulsión a chorro.



Fuente: Ria Novosti



Comentarios

Entradas más populares de este blog

EL MODELO DE REASON

CAUSALIDAD DE LOS ACCIDENTES — EL MODELO DE REASON

La aceptación en toda la industria del concepto de accidente de organización fue posible gracias a un sencillo pero gráficamente poderoso modelo elaborado por el Profesor James Reason, que proporcionó un medio para comprender cómo la aviación (o cualquier otro sistema de producción) funciona con éxito o se dirige al fracaso. Con arreglo a este modelo, los accidentes se producen cuando cierto número de factores permiten que ocurran — siendo cada uno de ellos necesario pero en sí no suficiente para quebrar las defensas del sistema. Debido a que los sistemas complejos como la aviación están extremadamente bien defendidos por capas de defensas profundas, las fallas en un punto único rara vez tienen consecuencias en el sistema aeronáutico. Las fallas de equipo o los errores operacionales nunca son la causa del quiebre de las defensas de seguridad operacional, sino más bien los elementos activadores. Los quiebres de…

La incursión en Barcelona - Una aproximación desde la Seguridad Operacional

Incursión en la pista. Todo suceso en un aeródromo que suponga la presencia incorrecta de una aeronave, vehículo o persona en la zona protegida de una superficie designada para el aterrizaje o despegue de una aeronave (DOC 9870 Manual sobre la prevención de incursiones en la pista)

Según los datos publicados en The Aviation Herald la distancia entre el A340 de AR y el B767 de  UTAir era de 1,7 millas. La siguiente imagen muestra la distancia entre ambas. En la calle M cruzando la pista 02, en base a esos datos publicados la situación quedaría así:




Cabe aclarar algo sobre el video que se ha viralizado en las redes. Las distancias no son lo que parece, el zoom y la posición del que filma dan la sensación de cercanía que no es tal. La posición del A340 que se encuentra en primer plano y el avión aproximando en segundo plano, da espectacularidad y parece que están a punto de impactar, en mi opinión, no es así, teniendo en cuenta los datos de Aviation Herald.
Este comentario no le quita gr…

COMPOSICIÓN DE LAS CENIZAS VOLCÁNICAS Y DE LOS GASES ASOCIADOS

Volcanes activos en la zona cordillerana

COMPOSICIÓN DE LAS CENIZAS VOLCÁNICAS Y DE LOS GASES ASOCIADOS

Esencialmente las nubes de cenizas volcánicas están constituidas por partículas finas de roca pulverizada, cuya composición corresponde a la del magma en el interior de los volcanes. Por consiguiente, la composición de las nubes de cenizas volcánicas varía de un volcán a otro. No obstante, en términos generales, están predominantemente constituidas por sílice (> 50%) junto con cantidades más pequeñas de óxidos de aluminio, hierro, calcio y sodio (Tabla 2-1).
El sílice es una forma de silicato vítreo y examinado por exploración microscópica de electrones se parece a cascos de vidrio de bordes agudos.
Los materiales de silicato de vidrio son muy duros. Ordinariamente de una dureza de nivel 5 ó 6 en la escala de Mohs (La escala Mohs recibe su nombre al minerólogo alemán Friedrich Mohs y se basa en una escala de dureza del talco qu…